sensor_id;sensor_type;location;lat;lon;timestamp;pressure;altitude;pressure_sealevel;temperature;humidity
69772;BME280;57046;45.988;18.664;2023-01-26T00:00:42;101498.75;;;5.12;85.39
69772;BME280;57046;45.988;18.664;2023-01-26T00:03:07;101494.00;;;5.19;85.18
69772;BME280;57046;45.988;18.664;2023-01-26T00:05:36;101451.25;;;4.97;86.27
69772;BME280;57046;45.988;18.664;2023-01-26T00:08:01;101480.53;;;5.09;85.50
69772;BME280;57046;45.988;18.664;2023-01-26T00:10:26;101486.13;;;5.07;86.45
69772;BME280;57046;45.988;18.664;2023-01-26T00:12:52;101479.94;;;5.02;85.70
69772;BME280;57046;45.988;18.664;2023-01-26T00:15:17;101482.41;;;5.08;86.11
69772;BME280;57046;45.988;18.664;2023-01-26T00:17:43;101476.75;;;5.05;85.93
69772;BME280;57046;45.988;18.664;2023-01-26T00:20:09;101470.81;;;4.98;85.94
69772;BME280;57046;45.988;18.664;2023-01-26T00:22:34;101479.66;;;4.98;86.42
69772;BME280;57046;45.988;18.664;2023-01-26T00:25:00;101477.25;;;5.02;86.12
69772;BME280;57046;45.988;18.664;2023-01-26T00:27:25;101458.97;;;4.89;86.87
69772;BME280;57046;45.988;18.664;2023-01-26T00:29:50;101465.16;;;4.94;87.16
69772;BME280;57046;45.988;18.664;2023-01-26T00:32:16;101453.03;;;4.87;87.65
69772;BME280;57046;45.988;18.664;2023-01-26T00:34:41;101456.59;;;4.92;87.57
69772;BME280;57046;45.988;18.664;2023-01-26T00:37:06;101460.03;;;4.88;87.78
69772;BME280;57046;45.988;18.664;2023-01-26T00:39:32;101469.41;;;4.90;88.00
69772;BME280;57046;45.988;18.664;2023-01-26T00:41:57;101451.16;;;4.82;87.36
69772;BME280;57046;45.988;18.664;2023-01-26T00:44:22;101465.66;;;4.86;87.69
69772;BME280;57046;45.988;18.664;2023-01-26T00:46:48;101455.78;;;4.92;87.75
69772;BME280;57046;45.988;18.664;2023-01-26T00:49:13;101453.63;;;4.94;87.48
69772;BME280;57046;45.988;18.664;2023-01-26T00:51:38;101445.59;;;4.94;86.97
69772;BME280;57046;45.988;18.664;2023-01-26T00:54:04;101453.84;;;4.87;87.09
69772;BME280;57046;45.988;18.664;2023-01-26T00:56:29;101436.44;;;4.85;86.58
69772;BME280;57046;45.988;18.664;2023-01-26T00:58:55;101438.88;;;4.86;86.93
69772;BME280;57046;45.988;18.664;2023-01-26T01:01:20;101434.63;;;4.95;86.56
69772;BME280;57046;45.988;18.664;2023-01-26T01:03:45;101447.47;;;4.93;87.65
69772;BME280;57046;45.988;18.664;2023-01-26T01:06:11;101453.63;;;4.94;87.15
69772;BME280;57046;45.988;18.664;2023-01-26T01:08:36;101446.63;;;4.88;87.60
69772;BME280;57046;45.988;18.664;2023-01-26T01:11:06;101435.91;;;4.88;88.13
69772;BME280;57046;45.988;18.664;2023-01-26T01:13:32;101436.44;;;4.85;87.54
69772;BME280;57046;45.988;18.664;2023-01-26T01:15:57;101431.25;;;4.73;88.34
69772;BME280;57046;45.988;18.664;2023-01-26T01:18:23;101431.25;;;4.73;87.80
69772;BME280;57046;45.988;18.664;2023-01-26T01:20:48;101425.38;;;4.71;88.13
69772;BME280;57046;45.988;18.664;2023-01-26T01:23:13;101426.84;;;4.89;87.60
69772;BME280;57046;45.988;18.664;2023-01-26T01:25:39;101422.28;;;4.89;88.28
69772;BME280;57046;45.988;18.664;2023-01-26T01:28:04;101408.03;;;4.79;88.66
69772;BME280;57046;45.988;18.664;2023-01-26T01:30:29;101411.75;;;4.78;88.36
69772;BME280;57046;45.988;18.664;2023-01-26T01:32:55;101408.56;;;4.81;88.47
69772;BME280;57046;45.988;18.664;2023-01-26T01:35:20;101404.84;;;4.87;87.47
69772;BME280;57046;45.988;18.664;2023-01-26T01:37:45;101412.94;;;4.92;88.07
69772;BME280;57046;45.988;18.664;2023-01-26T01:40:12;101406.22;;;4.89;87.34
69772;BME280;57046;45.988;18.664;2023-01-26T01:42:37;101389.00;;;4.75;87.92
69772;BME280;57046;45.988;18.664;2023-01-26T01:45:37;101393.78;;;4.73;88.60
69772;BME280;57046;45.988;18.664;2023-01-26T01:48:05;101393.53;;;4.75;88.50
69772;BME280;57046;45.988;18.664;2023-01-26T01:50:37;101405.00;;;4.70;89.84
69772;BME280;57046;45.988;18.664;2023-01-26T01:53:05;101397.19;;;4.63;89.88
69772;BME280;57046;45.988;18.664;2023-01-26T01:55:31;101400.75;;;4.74;90.22
69772;BME280;57046;45.988;18.664;2023-01-26T01:58:00;101381.72;;;4.66;89.91
69772;BME280;57046;45.988;18.664;2023-01-26T02:00:27;101385.47;;;4.70;89.48
69772;BME280;57046;45.988;18.664;2023-01-26T02:03:03;101383.59;;;4.70;88.57
69772;BME280;57046;45.988;18.664;2023-01-26T02:05:32;101378.75;;;4.67;87.92
69772;BME280;57046;45.988;18.664;2023-01-26T02:08:00;101367.22;;;4.61;88.01
69772;BME280;57046;45.988;18.664;2023-01-26T02:10:27;101381.72;;;4.71;88.43
69772;BME280;57046;45.988;18.664;2023-01-26T02:12:54;101379.78;;;4.61;86.89
69772;BME280;57046;45.988;18.664;2023-01-26T02:15:20;101369.91;;;4.67;87.71
69772;BME280;57046;45.988;18.664;2023-01-26T02:17:46;101366.16;;;4.63;86.90
69772;BME280;57046;45.988;18.664;2023-01-26T02:26:10;101354.94;;;4.66;87.80
69772;BME280;57046;45.988;18.664;2023-01-26T02:28:37;101350.88;;;4.58;88.17
69772;BME280;57046;45.988;18.664;2023-01-26T02:31:03;101342.78;;;4.53;86.44
69772;BME280;57046;45.988;18.664;2023-01-26T02:33:30;101340.94;;;4.53;86.65
69772;BME280;57046;45.988;18.664;2023-01-26T02:35:56;101345.47;;;4.53;86.65
69772;BME280;57046;45.988;18.664;2023-01-26T02:38:24;101336.38;;;4.49;87.33
69772;BME280;57046;45.988;18.664;2023-01-26T02:43:16;101338.84;;;4.60;87.53
69772;BME280;57046;45.988;18.664;2023-01-26T02:45:42;101339.88;;;4.54;87.23
69772;BME280;57046;45.988;18.664;2023-01-26T02:48:08;101331.56;;;4.56;87.00
69772;BME280;57046;45.988;18.664;2023-01-26T02:50:33;101336.59;;;4.47;87.68
69772;BME280;57046;45.988;18.664;2023-01-26T02:52:59;101331.31;;;4.57;86.97
69772;BME280;57046;45.988;18.664;2023-01-26T02:55:25;101333.72;;;4.54;87.06
69772;BME280;57046;45.988;18.664;2023-01-26T02:58:01;101336.09;;;4.50;88.08
69772;BME280;57046;45.988;18.664;2023-01-26T03:00:32;101328.88;;;4.51;87.49
69772;BME280;57046;45.988;18.664;2023-01-26T03:02:59;101326.19;;;4.51;86.15
69772;BME280;57046;45.988;18.664;2023-01-26T03:05:26;101321.66;;;4.51;86.80
69772;BME280;57046;45.988;18.664;2023-01-26T03:07:52;101328.06;;;4.50;85.14
69772;BME280;57046;45.988;18.664;2023-01-26T03:10:17;101325.16;;;4.52;84.36
69772;BME280;57046;45.988;18.664;2023-01-26T03:12:44;101316.03;;;4.53;84.45
69772;BME280;57046;45.988;18.664;2023-01-26T03:15:10;101308.75;;;4.43;84.40
69772;BME280;57046;45.988;18.664;2023-01-26T03:17:36;101306.94;;;4.49;84.03
69772;BME280;57046;45.988;18.664;2023-01-26T03:20:02;101312.00;;;4.45;83.10
69772;BME280;57046;45.988;18.664;2023-01-26T03:22:28;101308.22;;;4.41;83.53
69772;BME280;57046;45.988;18.664;2023-01-26T03:24:53;101291.31;;;4.36;83.33
69772;BME280;57046;45.988;18.664;2023-01-26T03:27:19;101295.66;;;4.42;82.45
69772;BME280;57046;45.988;18.664;2023-01-26T03:29:45;101286.81;;;4.41;82.69
69772;BME280;57046;45.988;18.664;2023-01-26T03:32:14;101284.06;;;4.31;83.60
69772;BME280;57046;45.988;18.664;2023-01-26T03:34:39;101288.69;;;4.41;83.50
69772;BME280;57046;45.988;18.664;2023-01-26T03:37:05;101291.06;;;4.42;83.40
69772;BME280;57046;45.988;18.664;2023-01-26T03:39:30;101275.75;;;4.28;83.50
69772;BME280;57046;45.988;18.664;2023-01-26T03:41:56;101291.81;;;4.28;83.75
69772;BME280;57046;45.988;18.664;2023-01-26T03:44:21;101295.88;;;4.35;83.24
69772;BME280;57046;45.988;18.664;2023-01-26T03:46:47;101281.09;;;4.28;83.45
69772;BME280;57046;45.988;18.664;2023-01-26T03:49:12;101267.44;;;4.24;83.72
69772;BME280;57046;45.988;18.664;2023-01-26T03:51:37;101286.47;;;4.33;83.60
69772;BME280;57046;45.988;18.664;2023-01-26T03:54:03;101286.00;;;4.41;83.35
69772;BME280;57046;45.988;18.664;2023-01-26T03:56:30;101284.94;;;4.42;83.26
69772;BME280;57046;45.988;18.664;2023-01-26T03:58:58;101283.22;;;4.26;83.02
69772;BME280;57046;45.988;18.664;2023-01-26T04:01:25;101274.13;;;4.27;82.89
69772;BME280;57046;45.988;18.664;2023-01-26T04:03:51;101270.56;;;4.11;82.98
69772;BME280;57046;45.988;18.664;2023-01-26T04:06:17;101265.50;;;4.15;82.98
69772;BME280;57046;45.988;18.664;2023-01-26T04:08:45;101261.69;;;4.05;83.61
69772;BME280;57046;45.988;18.664;2023-01-26T04:11:11;101264.41;;;4.10;82.61
69772;BME280;57046;45.988;18.664;2023-01-26T04:13:37;101263.91;;;4.19;81.57
69772;BME280;57046;45.988;18.664;2023-01-26T04:16:04;101259.59;;;4.13;82.50
69772;BME280;57046;45.988;18.664;2023-01-26T04:18:29;101243.75;;;4.01;82.38
69772;BME280;57046;45.988;18.664;2023-01-26T04:20:55;101245.84;;;3.94;82.37
69772;BME280;57046;45.988;18.664;2023-01-26T04:23:20;101244.53;;;4.01;82.47
69772;BME280;57046;45.988;18.664;2023-01-26T04:25:47;101250.16;;;4.05;81.40
69772;BME280;57046;45.988;18.664;2023-01-26T04:28:12;101233.19;;;3.84;81.62
69772;BME280;57046;45.988;18.664;2023-01-26T04:30:38;101233.97;;;3.80;80.61
69772;BME280;57046;45.988;18.664;2023-01-26T04:33:03;101251.34;;;3.82;81.16
69772;BME280;57046;45.988;18.664;2023-01-26T04:35:29;101252.69;;;3.85;81.36
69772;BME280;57046;45.988;18.664;2023-01-26T04:37:54;101236.72;;;3.90;80.53
69772;BME280;57046;45.988;18.664;2023-01-26T04:40:20;101241.84;;;3.96;79.60
69772;BME280;57046;45.988;18.664;2023-01-26T04:42:45;101239.47;;;4.05;80.91
69772;BME280;57046;45.988;18.664;2023-01-26T04:45:10;101235.75;;;4.06;79.93
69772;BME280;57046;45.988;18.664;2023-01-26T04:47:36;101232.25;;;4.00;80.97
69772;BME280;57046;45.988;18.664;2023-01-26T04:50:02;101248.34;;;4.10;80.32
69772;BME280;57046;45.988;18.664;2023-01-26T04:52:27;101233.34;;;4.04;79.17
69772;BME280;57046;45.988;18.664;2023-01-26T04:54:53;101234.94;;;4.05;79.21
69772;BME280;57046;45.988;18.664;2023-01-26T04:57:18;101223.94;;;3.97;79.75
69772;BME280;57046;45.988;18.664;2023-01-26T04:59:43;101223.34;;;3.90;80.33
69772;BME280;57046;45.988;18.664;2023-01-26T05:02:09;101209.09;;;3.79;80.48
69772;BME280;57046;45.988;18.664;2023-01-26T05:04:34;101238.41;;;4.01;79.05
69772;BME280;57046;45.988;18.664;2023-01-26T05:07:00;101220.75;;;4.00;79.58
69772;BME280;57046;45.988;18.664;2023-01-26T05:09:25;101212.13;;;3.93;80.48
69772;BME280;57046;45.988;18.664;2023-01-26T05:11:50;101210.81;;;3.95;79.82
69772;BME280;57046;45.988;18.664;2023-01-26T05:14:16;101213.53;;;4.00;79.85
69772;BME280;57046;45.988;18.664;2023-01-26T05:16:41;101214.88;;;4.03;79.02
69772;BME280;57046;45.988;18.664;2023-01-26T05:19:07;101199.81;;;3.92;77.42
69772;BME280;57046;45.988;18.664;2023-01-26T05:21:32;101204.41;;;3.96;77.95
69772;BME280;57046;45.988;18.664;2023-01-26T05:23:57;101209.22;;;3.99;77.29
69772;BME280;57046;45.988;18.664;2023-01-26T05:26:23;101218.59;;;4.02;78.43
69772;BME280;57046;45.988;18.664;2023-01-26T05:28:48;101221.28;;;4.02;78.23
69772;BME280;57046;45.988;18.664;2023-01-26T05:31:13;101212.13;;;3.88;78.15
69772;BME280;57046;45.988;18.664;2023-01-26T05:33:39;101219.13;;;3.99;78.23
69772;BME280;57046;45.988;18.664;2023-01-26T05:36:06;101208.69;;;3.97;78.30
69772;BME280;57046;45.988;18.664;2023-01-26T05:38:32;101224.50;;;4.04;78.27
69772;BME280;57046;45.988;18.664;2023-01-26T05:40:58;101214.84;;;3.98;79.39
69772;BME280;57046;45.988;18.664;2023-01-26T05:43:23;101216.38;;;3.89;79.56
69772;BME280;57046;45.988;18.664;2023-01-26T05:45:49;101216.97;;;3.96;79.70
69772;BME280;57046;45.988;18.664;2023-01-26T05:48:14;101219.28;;;4.24;90.97
69772;BME280;57046;45.988;18.664;2023-01-26T05:50:39;101208.69;;;3.97;81.42
69772;BME280;57046;45.988;18.664;2023-01-26T05:53:05;101220.28;;;4.08;80.65
69772;BME280;57046;45.988;18.664;2023-01-26T05:55:30;101215.63;;;3.93;80.95
69772;BME280;57046;45.988;18.664;2023-01-26T05:57:56;101228.00;;;4.04;80.24
69772;BME280;57046;45.988;18.664;2023-01-26T06:00:22;101220.69;;;3.95;79.99
69772;BME280;57046;45.988;18.664;2023-01-26T06:02:47;101223.41;;;4.00;80.61
69772;BME280;57046;45.988;18.664;2023-01-26T06:05:13;101227.13;;;3.94;80.74
69772;BME280;57046;45.988;18.664;2023-01-26T06:07:38;101227.66;;;3.96;81.41
69772;BME280;57046;45.988;18.664;2023-01-26T06:10:04;101217.47;;;3.88;81.67
69772;BME280;57046;45.988;18.664;2023-01-26T06:12:29;101215.03;;;3.86;82.21
69772;BME280;57046;45.988;18.664;2023-01-26T06:14:55;101230.56;;;3.89;81.63
69772;BME280;57046;45.988;18.664;2023-01-26T06:17:20;101234.63;;;3.97;82.49
69772;BME280;57046;45.988;18.664;2023-01-26T06:19:45;101221.47;;;3.90;82.01
69772;BME280;57046;45.988;18.664;2023-01-26T06:22:12;101223.66;;;3.98;82.06
69772;BME280;57046;45.988;18.664;2023-01-26T06:24:38;101220.41;;;3.91;84.42
69772;BME280;57046;45.988;18.664;2023-01-26T06:27:05;101210.72;;;3.80;83.23
69772;BME280;57046;45.988;18.664;2023-01-26T06:29:32;101220.91;;;3.88;82.88
69772;BME280;57046;45.988;18.664;2023-01-26T06:32:01;101225.13;;;3.79;83.06
69772;BME280;57046;45.988;18.664;2023-01-26T06:34:26;101204.31;;;3.49;83.97
69772;BME280;57046;45.988;18.664;2023-01-26T06:36:51;101212.13;;;3.56;84.21
69772;BME280;57046;45.988;18.664;2023-01-26T06:39:17;101215.19;;;3.75;83.71
69772;BME280;57046;45.988;18.664;2023-01-26T06:41:42;101205.00;;;3.67;83.91
69772;BME280;57046;45.988;18.664;2023-01-26T06:44:08;101203.16;;;3.72;83.07
69772;BME280;57046;45.988;18.664;2023-01-26T06:46:33;101215.78;;;3.82;82.97
69772;BME280;57046;45.988;18.664;2023-01-26T06:49:03;101209.59;;;3.76;83.72
69772;BME280;57046;45.988;18.664;2023-01-26T06:51:57;101216.06;;;3.80;82.78
69772;BME280;57046;45.988;18.664;2023-01-26T06:54:23;101210.66;;;3.75;82.84
69772;BME280;57046;45.988;18.664;2023-01-26T06:56:48;101218.16;;;3.78;82.82
69772;BME280;57046;45.988;18.664;2023-01-26T06:59:14;101219.25;;;3.77;82.35
69772;BME280;57046;45.988;18.664;2023-01-26T07:01:42;101228.03;;;3.78;83.31
69772;BME280;57046;45.988;18.664;2023-01-26T07:04:08;101223.81;;;3.82;82.88
69772;BME280;57046;45.988;18.664;2023-01-26T07:06:33;101230.19;;;3.76;83.04
69772;BME280;57046;45.988;18.664;2023-01-26T07:08:59;101221.06;;;3.72;82.97
69772;BME280;57046;45.988;18.664;2023-01-26T07:11:24;101226.97;;;3.74;82.97
69772;BME280;57046;45.988;18.664;2023-01-26T07:13:50;101237.38;;;3.75;83.88
69772;BME280;57046;45.988;18.664;2023-01-26T07:16:16;101226.41;;;3.72;83.12
69772;BME280;57046;45.988;18.664;2023-01-26T07:18:41;101227.50;;;3.76;84.08
69772;BME280;57046;45.988;18.664;2023-01-26T07:21:10;101228.31;;;3.76;83.09
69772;BME280;57046;45.988;18.664;2023-01-26T07:23:36;101218.09;;;3.68;83.96
69772;BME280;57046;45.988;18.664;2023-01-26T07:26:02;101218.06;;;3.63;82.96
69772;BME280;57046;45.988;18.664;2023-01-26T07:28:27;101227.28;;;3.82;82.93
69772;BME280;57046;45.988;18.664;2023-01-26T07:30:56;101226.78;;;3.85;82.03
69772;BME280;57046;45.988;18.664;2023-01-26T07:33:22;101228.41;;;3.86;83.21
69772;BME280;57046;45.988;18.664;2023-01-26T07:35:47;101214.41;;;3.74;83.69
69772;BME280;57046;45.988;18.664;2023-01-26T07:38:12;101204.28;;;3.81;82.53
69772;BME280;57046;45.988;18.664;2023-01-26T07:40:38;101208.06;;;3.85;82.83
69772;BME280;57046;45.988;18.664;2023-01-26T07:43:03;101215.63;;;3.93;81.19
69772;BME280;57046;45.988;18.664;2023-01-26T07:45:29;101205.16;;;3.92;80.54
69772;BME280;57046;45.988;18.664;2023-01-26T07:47:54;101211.63;;;3.96;80.27
69772;BME280;57046;45.988;18.664;2023-01-26T07:50:20;101203.59;;;3.96;81.43
69772;BME280;57046;45.988;18.664;2023-01-26T07:52:47;101210.81;;;3.95;81.52
69772;BME280;57046;45.988;18.664;2023-01-26T07:55:12;101222.00;;;3.92;81.08
69772;BME280;57046;45.988;18.664;2023-01-26T07:57:38;101211.88;;;3.94;81.31
69772;BME280;57046;45.988;18.664;2023-01-26T08:00:07;101203.06;;;3.94;81.84
69772;BME280;57046;45.988;18.664;2023-01-26T08:02:33;101206.59;;;4.04;81.70
69772;BME280;57046;45.988;18.664;2023-01-26T08:04:59;101200.97;;;4.06;80.96
69772;BME280;57046;45.988;18.664;2023-01-26T08:07:24;101195.63;;;4.06;80.62
69772;BME280;57046;45.988;18.664;2023-01-26T08:09:50;101203.44;;;4.13;80.82
69772;BME280;57046;45.988;18.664;2023-01-26T08:12:15;101182.25;;;4.01;79.59
69772;BME280;57046;45.988;18.664;2023-01-26T08:14:41;101201.31;;;4.15;81.44
69772;BME280;57046;45.988;18.664;2023-01-26T08:17:06;101206.34;;;4.06;80.17
69772;BME280;57046;45.988;18.664;2023-01-26T08:19:31;101203.66;;;4.06;80.27
69772;BME280;57046;45.988;18.664;2023-01-26T08:21:57;101199.69;;;4.14;78.91
69772;BME280;57046;45.988;18.664;2023-01-26T08:24:22;101199.94;;;4.12;79.25
69772;BME280;57046;45.988;18.664;2023-01-26T08:26:48;101196.50;;;4.17;80.08
69772;BME280;57046;45.988;18.664;2023-01-26T08:29:13;101202.16;;;4.20;79.66
69772;BME280;57046;45.988;18.664;2023-01-26T08:31:38;101194.13;;;4.20;79.50
69772;BME280;57046;45.988;18.664;2023-01-26T08:34:04;101198.66;;;4.20;79.63
69772;BME280;57046;45.988;18.664;2023-01-26T08:36:29;101199.66;;;4.08;77.46
69772;BME280;57046;45.988;18.664;2023-01-26T08:38:55;101200.00;;;4.22;77.73
69772;BME280;57046;45.988;18.664;2023-01-26T08:41:20;101197.31;;;4.22;78.52
69772;BME280;57046;45.988;18.664;2023-01-26T08:43:46;101200.88;;;4.33;77.47
69772;BME280;57046;45.988;18.664;2023-01-26T08:46:11;101183.38;;;4.15;77.51
69772;BME280;57046;45.988;18.664;2023-01-26T08:48:37;101196.78;;;4.20;76.72
69772;BME280;57046;45.988;18.664;2023-01-26T08:51:03;101202.19;;;4.25;78.01
69772;BME280;57046;45.988;18.664;2023-01-26T08:53:30;101200.81;;;4.23;77.03
69772;BME280;57046;45.988;18.664;2023-01-26T08:55:56;101180.47;;;4.17;78.12
69772;BME280;57046;45.988;18.664;2023-01-26T08:58:22;101185.84;;;4.22;76.51
69772;BME280;57046;45.988;18.664;2023-01-26T09:00:47;101192.03;;;4.27;77.57
69772;BME280;57046;45.988;18.664;2023-01-26T09:03:12;101179.69;;;4.21;76.47
69772;BME280;57046;45.988;18.664;2023-01-26T09:05:39;101179.41;;;4.23;77.49
69772;BME280;57046;45.988;18.664;2023-01-26T09:08:06;101194.16;;;4.25;77.35
69772;BME280;57046;45.988;18.664;2023-01-26T09:10:32;101186.97;;;4.36;77.06
69772;BME280;57046;45.988;18.664;2023-01-26T09:12:58;101168.19;;;4.21;77.25
69772;BME280;57046;45.988;18.664;2023-01-26T09:15:23;101177.03;;;4.26;77.02
69772;BME280;57046;45.988;18.664;2023-01-26T09:17:49;101183.72;;;4.29;77.60
69772;BME280;57046;45.988;18.664;2023-01-26T09:20:15;101183.00;;;4.38;76.63
69772;BME280;57046;45.988;18.664;2023-01-26T09:22:41;101164.25;;;4.38;77.26
69772;BME280;57046;45.988;18.664;2023-01-26T09:25:07;101171.72;;;4.36;76.02
69772;BME280;57046;45.988;18.664;2023-01-26T09:27:32;101163.69;;;4.31;76.06
69772;BME280;57046;45.988;18.664;2023-01-26T09:30:01;101166.63;;;4.30;76.29
69772;BME280;57046;45.988;18.664;2023-01-26T09:32:27;101167.75;;;4.39;77.29
69772;BME280;57046;45.988;18.664;2023-01-26T09:34:52;101162.41;;;4.44;77.87
69772;BME280;57046;45.988;18.664;2023-01-26T09:37:17;101164.25;;;4.43;77.36
69772;BME280;57046;45.988;18.664;2023-01-26T09:39:43;101155.44;;;4.43;76.31
69772;BME280;57046;45.988;18.664;2023-01-26T09:50:32;101136.97;;;4.41;78.31
69772;BME280;57046;45.988;18.664;2023-01-26T09:53:11;101140.22;;;4.48;78.28
69772;BME280;57046;45.988;18.664;2023-01-26T09:55:39;101151.94;;;4.42;77.11
69772;BME280;57046;45.988;18.664;2023-01-26T09:58:12;101132.16;;;4.38;77.19
69772;BME280;57046;45.988;18.664;2023-01-26T10:00:51;101133.78;;;4.44;77.33
69772;BME280;57046;45.988;18.664;2023-01-26T10:04:03;101136.13;;;4.36;77.36
69772;BME280;57046;45.988;18.664;2023-01-26T10:06:31;101117.72;;;4.44;77.30
69772;BME280;57046;45.988;18.664;2023-01-26T10:09:26;101127.69;;;4.59;77.70
69772;BME280;57046;45.988;18.664;2023-01-26T10:11:55;101125.53;;;4.61;77.66
69772;BME280;57046;45.988;18.664;2023-01-26T10:14:40;101122.03;;;4.50;76.67
69772;BME280;57046;45.988;18.664;2023-01-26T10:17:18;101130.34;;;4.59;77.46
69772;BME280;57046;45.988;18.664;2023-01-26T10:19:52;101109.97;;;4.53;77.38
69772;BME280;57046;45.988;18.664;2023-01-26T10:24:59;101099.25;;;4.43;76.40
69772;BME280;57046;45.988;18.664;2023-01-26T10:27:27;101099.28;;;4.53;76.74
69772;BME280;57046;45.988;18.664;2023-01-26T10:29:52;101096.34;;;4.59;75.57
69772;BME280;57046;45.988;18.664;2023-01-26T10:32:17;101100.38;;;4.62;75.58
69772;BME280;57046;45.988;18.664;2023-01-26T10:34:45;101115.38;;;4.73;75.67
69772;BME280;57046;45.988;18.664;2023-01-26T10:37:23;101103.09;;;4.72;76.22
69772;BME280;57046;45.988;18.664;2023-01-26T10:40:02;101100.66;;;4.71;74.75
69772;BME280;57046;45.988;18.664;2023-01-26T10:42:30;101093.41;;;4.66;76.54
69772;BME280;57046;45.988;18.664;2023-01-26T10:44:57;101106.28;;;4.69;74.90
69772;BME280;57046;45.988;18.664;2023-01-26T10:47:23;101102.53;;;4.65;75.25
69772;BME280;57046;45.988;18.664;2023-01-26T10:49:48;101100.41;;;4.72;75.76
69772;BME280;57046;45.988;18.664;2023-01-26T10:52:19;101088.06;;;4.61;74.92
69772;BME280;57046;45.988;18.664;2023-01-26T10:54:45;101087.56;;;4.74;75.63
69772;BME280;57046;45.988;18.664;2023-01-26T10:57:17;101088.63;;;4.83;76.60
69772;BME280;57046;45.988;18.664;2023-01-26T11:04:38;101083.28;;;4.83;75.45
69772;BME280;57046;45.988;18.664;2023-01-26T11:09:54;101070.69;;;4.84;75.66
69772;BME280;57046;45.988;18.664;2023-01-26T11:12:24;101060.00;;;4.79;75.53
69772;BME280;57046;45.988;18.664;2023-01-26T11:15:01;101058.38;;;4.88;75.20
69772;BME280;57046;45.988;18.664;2023-01-26T11:17:56;101048.47;;;4.88;75.85
69772;BME280;57046;45.988;18.664;2023-01-26T11:23:32;101046.34;;;4.90;75.23
69772;BME280;57046;45.988;18.664;2023-01-26T11:32:16;101006.44;;;4.89;74.96
69772;BME280;57046;45.988;18.664;2023-01-26T11:38:08;101018.22;;;5.13;74.96
69772;BME280;57046;45.988;18.664;2023-01-26T11:40:56;101010.72;;;5.05;74.38
69772;BME280;57046;45.988;18.664;2023-01-26T11:48:57;101005.34;;;5.15;75.17
69772;BME280;57046;45.988;18.664;2023-01-26T11:51:32;100996.50;;;5.20;74.83
69772;BME280;57046;45.988;18.664;2023-01-26T11:54:18;100996.75;;;5.28;75.19
69772;BME280;57046;45.988;18.664;2023-01-26T11:57:01;100981.78;;;5.27;75.61
69772;BME280;57046;45.988;18.664;2023-01-26T11:59:47;100976.16;;;5.19;73.94
69772;BME280;57046;45.988;18.664;2023-01-26T12:02:34;100986.28;;;5.32;72.67
69772;BME280;57046;45.988;18.664;2023-01-26T12:05:18;100994.34;;;5.32;nan
69772;BME280;57046;45.988;18.664;2023-01-26T12:08:09;100980.41;;;5.35;73.64
69772;BME280;57046;45.988;18.664;2023-01-26T12:11:01;100966.75;;;5.36;72.55
69772;BME280;57046;45.988;18.664;2023-01-26T12:13:39;100969.41;;;5.36;71.98
69772;BME280;57046;45.988;18.664;2023-01-26T12:16:19;100963.00;;;5.22;72.87
69772;BME280;57046;45.988;18.664;2023-01-26T12:18:55;100954.69;;;5.29;73.95
69772;BME280;57046;45.988;18.664;2023-01-26T12:21:24;100936.97;;;5.38;72.57
69772;BME280;57046;45.988;18.664;2023-01-26T12:23:59;100945.25;;;5.46;73.24
69772;BME280;57046;45.988;18.664;2023-01-26T12:26:28;100934.03;;;5.34;72.39
69772;BME280;57046;45.988;18.664;2023-01-26T12:29:16;100944.72;;;5.54;72.94
69772;BME280;57046;45.988;18.664;2023-01-26T12:34:26;100943.34;;;5.57;72.85
69772;BME280;57046;45.988;18.664;2023-01-26T12:37:56;100947.09;;;5.56;71.93
69772;BME280;57046;45.988;18.664;2023-01-26T12:45:39;100929.34;;;5.70;73.07
69772;BME280;57046;45.988;18.664;2023-01-26T12:48:36;100929.94;;;5.57;70.55
69772;BME280;57046;45.988;18.664;2023-01-26T12:51:09;100924.03;;;5.55;71.05
69772;BME280;57046;45.988;18.664;2023-01-26T12:54:25;100935.22;;;5.72;70.29
69772;BME280;57046;45.988;18.664;2023-01-26T12:56:56;100932.06;;;5.60;70.90
69772;BME280;57046;45.988;18.664;2023-01-26T13:01:52;100929.63;;;5.69;70.80
69772;BME280;57046;45.988;18.664;2023-01-26T13:04:18;100925.31;;;5.73;71.73
69772;BME280;57046;45.988;18.664;2023-01-26T13:06:43;100918.88;;;5.69;70.84
69772;BME280;57046;45.988;18.664;2023-01-26T13:11:47;100925.84;;;5.75;70.66
69772;BME280;57046;45.988;18.664;2023-01-26T13:14:35;100923.69;;;5.77;69.82
69772;BME280;57046;45.988;18.664;2023-01-26T13:24:55;100920.44;;;5.80;70.05
69772;BME280;57046;45.988;18.664;2023-01-26T13:29:54;100917.81;;;5.75;69.82
69772;BME280;57046;45.988;18.664;2023-01-26T13:34:59;100919.13;;;5.72;70.33
69772;BME280;57046;45.988;18.664;2023-01-26T13:37:31;100904.97;;;5.67;70.90
69772;BME280;57046;45.988;18.664;2023-01-26T13:40:00;100915.09;;;5.80;69.31
69772;BME280;57046;45.988;18.664;2023-01-26T13:42:37;100912.16;;;5.76;70.79
69772;BME280;57046;45.988;18.664;2023-01-26T13:45:16;100907.59;;;5.72;70.05
69772;BME280;57046;45.988;18.664;2023-01-26T13:47:48;100901.78;;;5.59;70.32
69772;BME280;57046;45.988;18.664;2023-01-26T13:50:31;100909.00;;;5.64;71.31
69772;BME280;57046;45.988;18.664;2023-01-26T13:52:57;100911.38;;;5.71;70.49
69772;BME280;57046;45.988;18.664;2023-01-26T13:55:29;100888.66;;;5.58;69.98
69772;BME280;57046;45.988;18.664;2023-01-26T13:58:13;100898.53;;;5.68;70.09
69772;BME280;57046;45.988;18.664;2023-01-26T14:00:39;100899.84;;;5.70;69.85
69772;BME280;57046;45.988;18.664;2023-01-26T14:03:20;100890.56;;;5.57;69.72
69772;BME280;57046;45.988;18.664;2023-01-26T14:06:15;100888.44;;;5.54;68.80
69772;BME280;57046;45.988;18.664;2023-01-26T14:08:51;100909.78;;;5.70;69.70